Главная страница
METAR-TAF:

METAR-TAF

Аэропорты :

Острава, Чехия

широта: 49-41N, долгота: 018-07E, высота над уровнем моря: 256 м

Текущие метеонаблюдения

Эта сводка был подготовлена 34 минут назад, в 22:00 UTC
Ветер 3 Узел от восточный
Температура 9°C
Влажность 49%
Давление 1030 hPa
Видимость 10 км и более
Нет облачности ниже 1500 м, и нет кучево-дождевой облачности

METAR: LKMT 192200Z 09003KT CAVOK 09/M01 Q1030 NOSIG

Время: 00:34 (22:34 UTC)

Прогноз

Эта сводка был подготовлена 5 часа и 34 минут назад, в 17:00 UTC
Прогноз действительный с 19-го 18 UTC до 21-го 00 UTC
Ветер 8 Узел от северо-северо-восточный
Видимость 10 км и более
Нет облачности ниже 1500 м, и нет кучево-дождевой облачности
изменения
С 19-го 23 UTC до 20-го 01 UTC
Ветер 2 Узел переменных направлений
изменения
С 20-го 08 UTC до 20-го 10 UTC
Ветер 8 Узел от северо-северо-восточный

TAF: LKMT 191700Z 1918/2100 03008KT CAVOK BECMG 1923/2001 VRB02KT BECMG 2008/2010 03008KT

Метеонаблюдения и прогнозы для более 4000 аэропортов (сводки METAR и TAF).

Имеющиеся станции представлены на карте желтыми и красными точками.

Чтобы увидеть название станции, наведите на нее мышь.

Затем щелкните, чтобы увидеть метеонаблюдения и метеопрогнозы.

Управление картой: чтобы увеличить масштаб, щелкните зеленые кнопки с черным крестиком; чтобы уменьшить масштаб, щелкните зеленую кнопку с тире; для просмотра соседних карт щелкайте зеленые стрелки.


METAR-TAF: